EDT,Max TemperatureF,Mean TemperatureF,Min TemperatureF,Max Dew PointF,MeanDew PointF,Min DewpointF,Max Humidity, Mean Humidity, Min Humidity, Max Sea Level PressureIn, Mean Sea Level PressureIn, Min Sea Level PressureIn, Max VisibilityMiles, Mean VisibilityMiles, Min VisibilityMiles, Max Wind SpeedMPH, Mean Wind SpeedMPH, Max Gust SpeedMPH,PrecipitationIn, CloudCover, Events, WindDirDegrees
2013-3-1,29,27,24,22,19,17,81,75,68,30.15,30.09,29.98,10,10,6,20,12,24,T,8,Snow,2
2013-3-2,26,23,19,18,17,15,84,76,68,30.12,30.09,30.06,10,8,3,15,8,18,0.02,8,Snow,345
2013-3-3,27,20,13,16,13,9,80,71,62,30.09,30.06,29.99,10,10,7,16,8,18,T,6,Snow,303
2013-3-4,32,22,12,16,13,8,84,67,49,30.17,30.14,30.09,10,10,10,9,3,13,0.00,0,,287
2013-3-5,35,25,14,24,19,11,81,71,61,30.15,30.01,29.88,10,10,10,21,11,24,0.00,5,,70
2013-3-6,40,34,27,28,25,21,85,75,64,30.23,30.09,29.90,10,10,7,14,7,17,0.00,8,,1
2013-3-7,35,28,20,29,25,17,85,71,56,30.43,30.31,30.21,10,7,2,13,5,16,0.02,7,Snow,313
2013-3-8,44,30,16,27,21,14,84,67,49,30.53,30.47,30.43,10,10,10,9,2,25,0.00,0,,308
2013-3-9,46,35,24,31,26,20,85,69,53,30.42,30.27,30.04,10,10,8,16,9,22,0.01,3,Rain,154
2013-3-10,60,50,39,43,36,30,71,59,47,30.03,29.90,29.78,10,10,9,20,9,29,T,6,Rain,176
2013-3-11,57,47,37,48,43,30,93,72,51,29.78,29.61,29.46,10,7,2,22,12,29,0.31,8,Rain,196
2013-3-12,40,35,30,31,27,22,82,71,59,29.91,29.81,29.68,10,9,4,20,12,25,T,8,Snow,250
2013-3-13,34,29,23,27,19,13,85,64,43,30.21,29.97,29.84,10,7,1,26,16,33,0.06,6,Snow,284
2013-3-14,40,31,21,21,17,12,77,61,44,30.27,30.20,30.09,10,10,10,16,9,22,0.00,0,,279
2013-3-15,40,36,32,32,28,17,96,74,51,30.07,29.92,29.85,10,6,2,15,9,18,T,8,,271
2013-3-16,32,29,25,28,23,19,85,74,63,30.04,29.87,29.79,10,5,1,15,8,21,0.19,8,Snow,40
2013-3-17,31,24,16,21,13,8,80,61,42,30.31,30.22,30.04,10,10,10,16,10,22,0.00,2,,40
2013-3-18,35,27,19,31,25,11,89,76,63,30.21,29.76,29.55,10,7,1,24,12,29,0.11,6,Rain-Snow,124
2013-3-19,35,29,23,30,18,14,81,72,62,29.94,29.72,29.57,10,4,0,29,16,39,0.03,8,Rain-Snow,254
2013-3-20,29,23,17,16,12,9,67,61,55,29.95,29.92,29.88,10,9,2,24,14,29,T,5,Snow,272
2013-3-21,31,24,17,23,18,9,77,70,63,29.94,29.87,29.82,10,5,1,21,14,25,0.01,8,Snow,281
2013-3-22,37,32,26,24,19,16,75,64,52,30.04,29.99,29.91,10,10,10,17,10,22,0.00,6,,298
2013-3-23,37,30,23,25,22,20,81,70,59,30.13,30.09,30.04,10,10,10,9,5,15,0.00,7,,327
2013-3-24,38,29,19,26,22,16,88,70,52,30.06,29.90,29.70,10,10,7,25,11,30,0.00,4,,54
2013-3-25,39,36,32,28,25,21,70,63,56,29.94,29.74,29.62,10,10,10,24,15,31,0.00,8,,24
2013-3-26,44,39,33,31,28,25,76,67,57,30.13,30.04,29.95,10,10,3,22,9,26,T,8,Snow,307
2013-3-27,48,39,30,29,26,23,78,62,45,30.22,30.16,30.13,10,10,10,22,13,31,T,6,,290
2013-3-28,52,42,31,27,25,23,72,54,36,30.28,30.25,30.22,10,10,10,0,9,0,0.00,4,,293
2013-3-29,53,41,29,25,22,20,75,53,30,30.31,30.27,30.22,10,10,10,15,4,17,0.00,1,,279
2013-3-30,55,40,24,29,22,17,81,52,22,30.23,30.11,29.92,10,10,10,17,6,23,0.00,1,,218
2013-3-31,57,46,35,41,35,29,82,63,43,29.90,29.71,29.62,10,8,4,25,12,33,0.01,7,Rain,243